createdAt,value
2018-12-12T00:01:24.100Z,98504.71
2018-12-12T00:03:51.570Z,98508.01
2018-12-12T00:06:19.023Z,98494.75
2018-12-12T00:08:46.485Z,98500.77
2018-12-12T00:11:13.929Z,98491.34
2018-12-12T00:13:41.400Z,98493.09
2018-12-12T00:16:08.848Z,98489.77
2018-12-12T00:18:36.735Z,98493.45
2018-12-12T00:21:04.193Z,98503.06
2018-12-12T00:23:31.634Z,98500.47
2018-12-12T00:25:59.099Z,98505.45
2018-12-12T00:28:26.544Z,98522.23
2018-12-12T00:30:54.003Z,98502.18
2018-12-12T00:33:21.455Z,98506.71
2018-12-12T00:35:48.922Z,98502.40
2018-12-12T00:38:16.369Z,98510.98
2018-12-12T00:40:43.834Z,98509.31
2018-12-12T00:43:11.289Z,98506.94
2018-12-12T00:45:38.745Z,98512.88
2018-12-12T00:48:06.189Z,98515.17
2018-12-12T00:50:33.648Z,98522.23
2018-12-12T00:53:01.116Z,98514.54
2018-12-12T00:55:28.577Z,98505.63
2018-12-12T00:57:56.117Z,98516.41
2018-12-12T01:00:23.585Z,98503.27
2018-12-12T01:02:51.038Z,98511.39
2018-12-12T01:05:18.498Z,98515.80
2018-12-12T01:07:45.973Z,98521.86
2018-12-12T01:10:13.569Z,98519.63
2018-12-12T01:12:41.101Z,98520.16
2018-12-12T01:15:08.557Z,98516.07
2018-12-12T01:17:36.013Z,98521.27
2018-12-12T01:20:05.043Z,98521.27
2018-12-12T01:22:32.507Z,98512.87
2018-12-12T01:24:59.959Z,98528.47
2018-12-12T01:27:27.414Z,98523.34
2018-12-12T01:29:54.860Z,98529.29
2018-12-12T01:32:22.325Z,98523.64
2018-12-12T01:34:49.765Z,98527.95
2018-12-12T01:37:17.234Z,98521.89
2018-12-12T01:39:45.346Z,98532.85
2018-12-12T01:42:12.801Z,98526.91
2018-12-12T01:44:40.555Z,98536.48
2018-12-12T01:47:08.055Z,98526.02
2018-12-12T01:49:35.514Z,98527.41
2018-12-12T01:52:02.994Z,98526.20
2018-12-12T01:54:30.441Z,98531.21
2018-12-12T01:56:57.885Z,98526.20
2018-12-12T01:59:25.358Z,98536.39
2018-12-12T02:01:52.808Z,98517.55
2018-12-12T02:04:20.278Z,98532.17
2018-12-12T02:06:48.334Z,98532.33
2018-12-12T02:09:15.790Z,98523.64
2018-12-12T02:11:43.236Z,98527.98
2018-12-12T02:14:10.690Z,98527.05
2018-12-12T02:16:38.145Z,98522.13
2018-12-12T02:19:05.885Z,98529.17
2018-12-12T02:21:33.330Z,98536.34
2018-12-12T02:24:00.964Z,98526.69
2018-12-12T02:26:28.408Z,98525.84
2018-12-12T02:28:55.864Z,98523.98
2018-12-12T02:31:23.319Z,98529.28
2018-12-12T02:33:51.049Z,98520.41
2018-12-12T02:36:18.500Z,98518.55
2018-12-12T02:38:45.945Z,98526.02
2018-12-12T02:41:13.406Z,98536.26
2018-12-12T02:43:40.853Z,98520.08
2018-12-12T02:46:08.326Z,98515.84
2018-12-12T02:48:35.788Z,98517.22
2018-12-12T02:51:03.342Z,98528.62
2018-12-12T02:53:30.813Z,98527.88
2018-12-12T02:55:58.276Z,98525.02
2018-12-12T02:58:25.739Z,98519.92
2018-12-12T03:00:53.214Z,98514.66
2018-12-12T03:03:20.695Z,98519.22
2018-12-12T03:05:48.156Z,98530.55
2018-12-12T03:08:15.609Z,98524.27
2018-12-12T03:10:43.081Z,98525.02
2018-12-12T03:13:10.531Z,98527.43
2018-12-12T03:15:37.994Z,98530.09
2018-12-12T03:18:05.461Z,98525.76
2018-12-12T03:20:32.919Z,98528.09
2018-12-12T03:23:00.422Z,98523.59
2018-12-12T03:25:27.882Z,98519.34
2018-12-12T03:27:55.346Z,98522.30
2018-12-12T03:30:22.796Z,98528.47
2018-12-12T03:32:50.274Z,98518.45
2018-12-12T03:35:17.848Z,98534.44
2018-12-12T03:37:45.432Z,98521.00
2018-12-12T03:40:13.274Z,98530.93
2018-12-12T03:42:41.123Z,98524.45
2018-12-12T03:45:08.687Z,98518.52
2018-12-12T03:47:36.148Z,98514.63
2018-12-12T03:50:04.083Z,98528.80
2018-12-12T03:52:31.541Z,98517.77
2018-12-12T03:54:58.983Z,98525.02
2018-12-12T03:57:26.437Z,98519.86
2018-12-12T03:59:53.902Z,98514.88
2018-12-12T04:02:21.353Z,98532.69
2018-12-12T04:04:48.827Z,98518.00
2018-12-12T04:07:16.295Z,98512.02
2018-12-12T04:09:43.758Z,98522.67
2018-12-12T04:12:11.215Z,98522.95
2018-12-12T04:14:38.694Z,98524.05
2018-12-12T04:17:06.143Z,98518.77
2018-12-12T04:19:33.703Z,98524.45
2018-12-12T04:22:01.659Z,98532.19
2018-12-12T04:24:29.211Z,98521.61
2018-12-12T04:26:56.675Z,98520.98
2018-12-12T04:29:24.141Z,98521.45
2018-12-12T04:31:51.601Z,98525.72
2018-12-12T04:34:19.061Z,98531.82
2018-12-12T04:36:46.521Z,98519.12
2018-12-12T04:39:13.990Z,98528.32
2018-12-12T04:41:41.442Z,98541.56
2018-12-12T04:44:08.898Z,98537.88
2018-12-12T04:46:36.357Z,98525.97
2018-12-12T04:49:03.801Z,98540.27
2018-12-12T04:51:31.279Z,98528.42
2018-12-12T04:53:58.896Z,98538.31
2018-12-12T04:56:26.366Z,98533.80
2018-12-12T04:58:54.810Z,98544.77
2018-12-12T05:01:22.268Z,98542.97
2018-12-12T05:03:49.718Z,98540.06
2018-12-12T05:06:17.188Z,98543.69
2018-12-12T05:08:44.641Z,98535.66
2018-12-12T05:11:12.106Z,98535.00
2018-12-12T05:13:39.559Z,98544.05
2018-12-12T05:16:07.707Z,98535.72
2018-12-12T05:18:35.163Z,98551.66
2018-12-12T05:21:02.635Z,98550.09
2018-12-12T05:23:30.093Z,98542.28
2018-12-12T05:25:57.565Z,98549.33
2018-12-12T05:28:25.018Z,98550.73
2018-12-12T05:30:52.481Z,98540.66
2018-12-12T05:33:20.022Z,98552.55
2018-12-12T05:35:47.477Z,98547.02
2018-12-12T05:38:14.932Z,98555.62
2018-12-12T05:40:42.872Z,98551.72
2018-12-12T05:43:10.538Z,98557.14
2018-12-12T05:45:38.025Z,98563.91
2018-12-12T05:48:05.494Z,98553.64
2018-12-12T05:50:32.950Z,98567.33
2018-12-12T05:53:00.414Z,98572.00
2018-12-12T05:55:28.852Z,98574.72
2018-12-12T05:57:56.552Z,98573.48
2018-12-12T06:00:24.000Z,98592.42
2018-12-12T06:02:51.463Z,98586.47
2018-12-12T06:05:18.998Z,98586.03
2018-12-12T06:07:46.462Z,98582.09
2018-12-12T06:10:13.912Z,98593.17
2018-12-12T06:12:41.377Z,98589.24
2018-12-12T06:15:08.918Z,98587.88
2018-12-12T06:17:36.684Z,98592.01
2018-12-12T06:20:06.445Z,98597.89
2018-12-12T06:22:37.632Z,98599.29
2018-12-12T06:25:03.617Z,98606.09
2018-12-12T06:27:31.065Z,98612.06
2018-12-12T06:29:58.529Z,98609.12
2018-12-12T06:32:25.968Z,98621.05
2018-12-12T06:34:53.427Z,98617.47
2018-12-12T06:37:20.873Z,98627.20
2018-12-12T06:39:48.350Z,98632.71
2018-12-12T06:42:15.786Z,98624.89
2018-12-12T06:44:43.241Z,98631.55
2018-12-12T06:47:10.694Z,98634.63
2018-12-12T06:49:38.160Z,98636.29
2018-12-12T06:52:05.620Z,98637.74
2018-12-12T06:54:33.094Z,98639.76
2018-12-12T06:57:00.537Z,98634.90
2018-12-12T06:59:28.002Z,98631.04
2018-12-12T07:01:55.543Z,98641.27
2018-12-12T07:04:23.017Z,98637.91
2018-12-12T07:06:50.469Z,98655.30
2018-12-12T07:09:17.925Z,98651.41
2018-12-12T07:11:45.403Z,98650.41
2018-12-12T07:14:12.854Z,98647.33
2018-12-12T07:16:40.310Z,98647.91
2018-12-12T07:19:07.767Z,98650.03
2018-12-12T07:21:35.222Z,98651.81
2018-12-12T07:24:02.968Z,98650.18
2018-12-12T07:26:30.429Z,98641.14
2018-12-12T07:28:57.888Z,98658.51
2018-12-12T07:31:25.353Z,98654.07
2018-12-12T07:33:52.898Z,98661.80
2018-12-12T07:36:20.354Z,98659.91
2018-12-12T07:38:47.805Z,98665.46
2018-12-12T07:41:15.273Z,98665.41
2018-12-12T07:43:42.720Z,98665.18
2018-12-12T07:46:10.188Z,98664.02
2018-12-12T07:48:37.629Z,98673.53
2018-12-12T07:51:05.094Z,98671.27
2018-12-12T07:53:32.547Z,98675.88
2018-12-12T07:56:00.010Z,98675.03
2018-12-12T07:58:27.485Z,98682.59
2018-12-12T08:00:54.938Z,98677.69
2018-12-12T08:03:22.396Z,98680.39
2018-12-12T08:05:49.839Z,98683.44
2018-12-12T08:08:17.296Z,98679.20
2018-12-12T08:10:44.753Z,98687.70
2018-12-12T08:13:12.209Z,98683.35
2018-12-12T08:15:39.657Z,98682.92
2018-12-12T08:18:07.133Z,98686.92
2018-12-12T08:20:34.581Z,98696.73
2018-12-12T08:23:02.235Z,98693.71
2018-12-12T08:25:30.695Z,98698.34
2018-12-12T08:27:58.157Z,98699.38
2018-12-12T08:30:25.612Z,98700.39
2018-12-12T08:32:53.084Z,98697.17
2018-12-12T08:35:20.537Z,98701.96
2018-12-12T08:37:48.002Z,98709.59
2018-12-12T08:40:15.442Z,98708.74
2018-12-12T08:42:42.915Z,98704.17
2018-12-12T08:45:10.483Z,98706.11
2018-12-12T08:47:37.930Z,98713.19
2018-12-12T08:50:07.146Z,98704.34
2018-12-12T08:52:34.597Z,98714.19
2018-12-12T08:55:02.060Z,98703.67
2018-12-12T08:57:29.587Z,98712.74
2018-12-12T08:59:57.055Z,98707.42
2018-12-12T09:02:24.498Z,98712.28
2018-12-12T09:04:52.005Z,98718.78
2018-12-12T09:07:19.569Z,98709.58
2018-12-12T09:09:47.029Z,98703.51
2018-12-12T09:12:14.474Z,98709.47
2018-12-12T09:14:41.965Z,98711.42
2018-12-12T09:17:09.923Z,98710.06
2018-12-12T09:19:37.809Z,98707.23
2018-12-12T09:22:05.277Z,98699.13
2018-12-12T09:24:32.740Z,98706.95
2018-12-12T09:27:00.298Z,98707.13
2018-12-12T09:29:27.767Z,98695.13
2018-12-12T09:31:55.218Z,98691.86
2018-12-12T09:34:22.683Z,98696.41
2018-12-12T09:36:50.133Z,98703.23
2018-12-12T09:39:17.586Z,98695.46
2018-12-12T09:41:45.043Z,98687.95
2018-12-12T09:44:12.501Z,98692.38
2018-12-12T09:46:39.965Z,98693.21
2018-12-12T09:49:07.410Z,98698.56
2018-12-12T09:51:34.865Z,98697.35
2018-12-12T09:54:02.309Z,98701.61
2018-12-12T09:56:29.773Z,98691.41
2018-12-12T09:58:57.230Z,98701.93
2018-12-12T10:01:24.695Z,98693.71
2018-12-12T10:03:52.139Z,98688.94
2018-12-12T10:06:19.593Z,98689.68
2018-12-12T10:08:47.046Z,98692.69
2018-12-12T10:11:14.512Z,98689.66
2018-12-12T10:13:41.961Z,98691.72
2018-12-12T10:16:09.429Z,98690.16
2018-12-12T10:18:36.885Z,98687.20
2018-12-12T10:21:04.622Z,98685.74
2018-12-12T10:23:32.074Z,98680.45
2018-12-12T10:25:59.545Z,98671.12
2018-12-12T10:28:27.004Z,98679.80
2018-12-12T10:30:54.445Z,98684.60
2018-12-12T10:33:21.911Z,98683.31
2018-12-12T10:35:49.369Z,98677.06
2018-12-12T10:38:16.848Z,98676.20
2018-12-12T10:40:44.786Z,98680.13
2018-12-12T10:43:12.256Z,98674.25
2018-12-12T10:45:39.705Z,98669.70
2018-12-12T10:48:08.270Z,98671.07
2018-12-12T10:50:35.945Z,98670.14
2018-12-12T10:53:03.409Z,98673.57
2018-12-12T10:55:30.846Z,98672.88
2018-12-12T10:57:58.309Z,98668.52
2018-12-12T11:00:25.766Z,98669.05
2018-12-12T11:05:59.322Z,98673.48
2018-12-12T11:08:26.785Z,98668.35
2018-12-12T11:10:54.224Z,98677.72
2018-12-12T11:13:21.687Z,98668.84
2018-12-12T11:15:49.134Z,98673.20
2018-12-12T11:18:16.597Z,98662.91
2018-12-12T11:20:44.055Z,98667.50
2018-12-12T11:23:11.514Z,98674.29
2018-12-12T11:25:38.978Z,98673.27
2018-12-12T11:28:06.427Z,98676.21
2018-12-12T11:30:33.889Z,98669.58
2018-12-12T11:33:01.338Z,98669.70
2018-12-12T11:35:28.793Z,98670.59
2018-12-12T11:37:56.252Z,98664.45
2018-12-12T11:40:23.715Z,98670.20
2018-12-12T11:42:51.161Z,98671.44
2018-12-12T11:45:18.621Z,98664.73
2018-12-12T11:47:46.242Z,98662.38
2018-12-12T11:50:13.697Z,98665.59
2018-12-12T11:52:41.149Z,98666.77
2018-12-12T11:55:08.709Z,98663.35
2018-12-12T11:57:36.247Z,98667.55
2018-12-12T12:00:05.174Z,98671.38
2018-12-12T12:02:35.634Z,98673.56
2018-12-12T12:05:02.155Z,98666.64
2018-12-12T12:07:29.597Z,98667.62
2018-12-12T12:09:57.056Z,98663.59
2018-12-12T12:12:24.514Z,98660.58
2018-12-12T12:14:51.961Z,98661.88
2018-12-12T12:17:19.419Z,98653.77
2018-12-12T12:19:46.868Z,98652.73
2018-12-12T12:22:14.327Z,98661.52
2018-12-12T12:24:41.786Z,98655.81
2018-12-12T12:27:09.274Z,98661.88
2018-12-12T12:29:36.726Z,98665.13
2018-12-12T12:32:04.200Z,98657.65
2018-12-12T12:34:31.645Z,98663.86
2018-12-12T12:36:59.184Z,98667.53
2018-12-12T12:39:26.629Z,98657.30
2018-12-12T12:41:54.092Z,98659.69
2018-12-12T12:44:21.569Z,98655.73
2018-12-12T12:46:49.037Z,98656.11
2018-12-12T12:49:16.478Z,98657.30
2018-12-12T12:51:43.938Z,98648.12
2018-12-12T12:54:11.384Z,98650.32
2018-12-12T12:56:38.977Z,98648.25
2018-12-12T12:59:06.438Z,98641.98
2018-12-12T13:01:33.891Z,98650.45
2018-12-12T13:04:01.357Z,98644.70
2018-12-12T13:06:28.797Z,98642.58
2018-12-12T13:08:56.261Z,98640.72
2018-12-12T13:11:23.721Z,98643.28
2018-12-12T13:13:51.190Z,98643.00
2018-12-12T13:16:18.645Z,98641.25
2018-12-12T13:18:46.100Z,98647.44
2018-12-12T13:21:13.553Z,98646.91
2018-12-12T13:23:41.018Z,98650.72
2018-12-12T13:26:08.464Z,98650.44
2018-12-12T13:28:35.920Z,98643.58
2018-12-12T13:31:03.371Z,98662.45
2018-12-12T13:33:30.831Z,98647.91
2018-12-12T13:35:58.277Z,98655.02
2018-12-12T13:38:25.849Z,98658.77
2018-12-12T13:40:53.366Z,98655.28
2018-12-12T13:43:20.833Z,98657.25
2018-12-12T13:45:48.291Z,98663.53
2018-12-12T13:48:15.736Z,98663.68
2018-12-12T13:50:43.197Z,98659.92
2018-12-12T13:53:10.841Z,98658.89
2018-12-12T13:55:38.306Z,98653.53
2018-12-12T13:58:05.747Z,98646.77
2018-12-12T14:00:38.966Z,98647.39
2018-12-12T14:03:02.654Z,98652.02
2018-12-12T14:05:30.112Z,98647.92
2018-12-12T14:07:57.561Z,98645.13
2018-12-12T14:10:25.034Z,98642.52
2018-12-12T14:12:52.482Z,98646.11
2018-12-12T14:15:19.946Z,98642.30
2018-12-12T14:17:47.401Z,98645.09
2018-12-12T14:20:14.861Z,98648.29
2018-12-12T14:22:42.316Z,98646.70
2018-12-12T14:25:09.774Z,98650.94
2018-12-12T14:27:38.964Z,98650.08
2018-12-12T14:30:08.561Z,98645.88
2018-12-12T14:32:36.013Z,98649.48
2018-12-12T14:35:04.353Z,98653.30
2018-12-12T14:37:31.800Z,98650.08
2018-12-12T14:39:59.256Z,98664.33
2018-12-12T14:42:26.702Z,98664.11
2018-12-12T14:44:54.167Z,98669.70
2018-12-12T14:47:21.614Z,98666.80
2018-12-12T14:49:49.065Z,98664.50
2018-12-12T14:52:16.525Z,98662.38
2018-12-12T14:54:43.983Z,98664.02
2018-12-12T14:57:12.542Z,98664.98
2018-12-12T14:59:39.994Z,98660.50
2018-12-12T15:02:07.477Z,98669.39
2018-12-12T15:04:36.094Z,98654.31
2018-12-12T15:07:03.733Z,98663.77
2018-12-12T15:09:31.196Z,98667.02
2018-12-12T15:11:58.653Z,98667.34
2018-12-12T15:14:26.109Z,98660.80
2018-12-12T15:16:53.567Z,98658.40
2018-12-12T15:19:21.017Z,98658.28
2018-12-12T15:21:48.480Z,98660.59
2018-12-12T15:24:16.341Z,98665.42
2018-12-12T15:26:43.816Z,98668.11
2018-12-12T15:29:11.257Z,98661.56
2018-12-12T15:31:38.712Z,98660.47
2018-12-12T15:34:06.177Z,98664.90
2018-12-12T15:36:33.615Z,98657.80
2018-12-12T15:39:01.073Z,98661.77
2018-12-12T15:41:28.533Z,98666.76
2018-12-12T15:43:55.994Z,98662.39
2018-12-12T15:46:23.452Z,98660.05
2018-12-12T15:48:50.933Z,98667.61
2018-12-12T15:51:18.377Z,98660.91
2018-12-12T15:53:46.522Z,98669.25
2018-12-12T15:56:14.017Z,98666.89
2018-12-12T15:58:41.485Z,98672.59
2018-12-12T16:01:08.943Z,98666.17
2018-12-12T16:03:36.408Z,98674.41
2018-12-12T16:06:03.935Z,98670.30
2018-12-12T16:08:31.397Z,98669.73
2018-12-12T16:10:58.854Z,98675.17
2018-12-12T16:13:26.318Z,98675.27
2018-12-12T16:15:53.889Z,98673.61
2018-12-12T16:18:22.347Z,98666.48
2018-12-12T16:20:49.821Z,98672.83
2018-12-12T16:23:17.274Z,98671.05
2018-12-12T16:25:44.742Z,98667.16
2018-12-12T16:28:12.191Z,98664.52
2018-12-12T16:30:39.652Z,98670.09
2018-12-12T16:33:07.113Z,98668.91
2018-12-12T16:35:34.577Z,98671.61
2018-12-12T16:38:02.198Z,98666.90
2018-12-12T16:40:29.660Z,98664.88
2018-12-12T16:42:57.112Z,98665.70
2018-12-12T16:45:25.186Z,98665.51
2018-12-12T16:47:52.639Z,98667.29
2018-12-12T16:50:20.112Z,98670.35
2018-12-12T16:52:47.566Z,98666.66
2018-12-12T16:55:15.038Z,98668.45
2018-12-12T16:57:42.485Z,98669.94
2018-12-12T17:00:10.036Z,98667.97
2018-12-12T17:02:37.487Z,98665.72
2018-12-12T17:05:05.432Z,98665.47
2018-12-12T17:07:32.881Z,98665.84
2018-12-12T17:10:00.757Z,98662.77
2018-12-12T17:12:28.834Z,98663.37
2018-12-12T17:14:56.311Z,98662.53
2018-12-12T17:17:23.780Z,98667.11
2018-12-12T17:19:52.003Z,98664.53
2018-12-12T17:22:19.562Z,98668.33
2018-12-12T17:24:47.018Z,98663.78
2018-12-12T17:27:14.491Z,98664.06
2018-12-12T17:29:41.952Z,98663.39
2018-12-12T17:32:09.409Z,98667.27
2018-12-12T17:34:36.868Z,98668.91
2018-12-12T17:37:04.331Z,98667.64
2018-12-12T17:39:31.798Z,98671.65
2018-12-12T17:41:59.273Z,98666.70
2018-12-12T17:44:26.738Z,98669.78
2018-12-12T17:46:54.287Z,98668.70
2018-12-12T17:49:21.793Z,98665.61
2018-12-12T17:51:49.249Z,98670.19
2018-12-12T17:54:16.697Z,98669.20
2018-12-12T17:56:44.135Z,98666.60
2018-12-12T17:59:11.601Z,98667.05
2018-12-12T18:01:39.040Z,98670.30
2018-12-12T18:04:06.493Z,98668.73
2018-12-12T18:06:33.945Z,98664.78
2018-12-12T18:09:01.438Z,98672.98
2018-12-12T18:11:29.060Z,98667.72
2018-12-12T18:13:56.546Z,98671.62
2018-12-12T18:16:23.991Z,98668.31
2018-12-12T18:18:51.459Z,98666.63
2018-12-12T18:21:18.924Z,98666.48
2018-12-12T18:23:46.406Z,98669.85
2018-12-12T18:26:14.064Z,98668.81
2018-12-12T18:28:41.541Z,98671.94
2018-12-12T18:31:08.998Z,98673.68
2018-12-12T18:33:36.928Z,98674.60
2018-12-12T18:36:04.533Z,98675.80
2018-12-12T18:38:32.284Z,98672.09
2018-12-12T18:40:59.752Z,98678.67
2018-12-12T18:43:27.215Z,98680.25
2018-12-12T18:45:54.689Z,98672.69
2018-12-12T18:48:22.120Z,98677.66
2018-12-12T18:50:49.690Z,98673.70
2018-12-12T18:53:17.117Z,98672.50
2018-12-12T18:55:44.635Z,98670.50
2018-12-12T18:58:12.626Z,98668.98
2018-12-12T19:00:40.213Z,98674.60
2018-12-12T19:03:07.670Z,98673.23
2018-12-12T19:05:35.167Z,98678.92
2018-12-12T19:08:02.643Z,98680.02
2018-12-12T19:10:30.169Z,98686.06
2018-12-12T19:12:57.634Z,98682.51
2018-12-12T19:15:25.137Z,98687.72
2018-12-12T19:17:54.104Z,98687.45
2018-12-12T19:20:21.884Z,98692.27
2018-12-12T19:22:49.363Z,98685.69
2018-12-12T19:25:17.118Z,98689.87
2018-12-12T19:27:44.573Z,98690.86
2018-12-12T19:30:12.033Z,98694.72
2018-12-12T19:32:39.828Z,98688.87
2018-12-12T19:35:08.245Z,98686.81
2018-12-12T19:37:35.917Z,98690.35
2018-12-12T19:40:04.205Z,98685.31
2018-12-12T19:42:31.701Z,98685.48
2018-12-12T19:44:59.250Z,98682.52
2018-12-12T19:47:26.734Z,98678.33
2018-12-12T19:49:54.183Z,98683.34
2018-12-12T19:52:21.645Z,98685.47
2018-12-12T19:54:49.086Z,98680.19
2018-12-12T19:57:16.545Z,98680.25
2018-12-12T19:59:44.002Z,98679.03
2018-12-12T20:02:11.485Z,98672.34
2018-12-12T20:04:38.937Z,98679.22
2018-12-12T20:07:06.406Z,98677.00
2018-12-12T20:09:33.859Z,98682.48
2018-12-12T20:12:01.362Z,98683.14
2018-12-12T20:14:28.842Z,98688.34
2018-12-12T20:16:56.355Z,98687.94
2018-12-12T20:19:23.819Z,98685.62
2018-12-12T20:21:51.310Z,98687.59
2018-12-12T20:24:18.788Z,98687.11
2018-12-12T20:26:46.238Z,98685.91
2018-12-12T20:29:13.700Z,98685.30
2018-12-12T20:31:41.151Z,98693.00
2018-12-12T20:34:08.621Z,98695.34
2018-12-12T20:36:36.072Z,98689.87
2018-12-12T20:39:05.439Z,98686.45
2018-12-12T20:41:32.969Z,98686.14
2018-12-12T20:44:00.428Z,98690.89
2018-12-12T20:46:27.911Z,98684.86
2018-12-12T20:48:55.390Z,98692.23
2018-12-12T20:51:22.852Z,98689.73
2018-12-12T20:53:50.318Z,98687.86
2018-12-12T20:56:17.843Z,98690.75
2018-12-12T20:58:45.311Z,98679.45
2018-12-12T21:01:12.772Z,98686.93
2018-12-12T21:03:40.368Z,98676.48
2018-12-12T21:06:07.829Z,98682.52
2018-12-12T21:08:35.280Z,98690.17
2018-12-12T21:11:02.740Z,98691.62
2018-12-12T21:13:30.214Z,98688.28
2018-12-12T21:15:57.683Z,98688.02
2018-12-12T21:18:25.126Z,98683.42
2018-12-12T21:20:52.597Z,98689.33
2018-12-12T21:23:20.064Z,98683.50
2018-12-12T21:25:48.036Z,98681.56
2018-12-12T21:28:15.477Z,98678.86
2018-12-12T21:30:42.937Z,98687.85
2018-12-12T21:33:10.387Z,98678.12
2018-12-12T21:35:37.857Z,98676.47
2018-12-12T21:38:05.309Z,98679.55
2018-12-12T21:40:32.810Z,98679.20
2018-12-12T21:43:00.279Z,98675.17
2018-12-12T21:45:27.762Z,98681.30
2018-12-12T21:47:55.214Z,98683.05
2018-12-12T21:50:22.682Z,98688.05
2018-12-12T21:52:50.129Z,98684.20
2018-12-12T21:55:17.585Z,98688.02
2018-12-12T21:57:45.064Z,98687.23
2018-12-12T22:00:12.518Z,98685.71
2018-12-12T22:02:39.986Z,98691.41
2018-12-12T22:05:07.442Z,98689.58
2018-12-12T22:07:34.913Z,98691.85
2018-12-12T22:10:02.373Z,98689.28
2018-12-12T22:12:29.837Z,98689.60
2018-12-12T22:14:57.284Z,98689.13
2018-12-12T22:17:24.763Z,98686.08
2018-12-12T22:19:52.214Z,98678.79
2018-12-12T22:22:19.698Z,98683.30
2018-12-12T22:24:47.152Z,98684.07
2018-12-12T22:27:14.625Z,98681.58
2018-12-12T22:29:42.093Z,98683.92
2018-12-12T22:32:09.552Z,98683.39
2018-12-12T22:34:37.019Z,98684.02
2018-12-12T22:37:05.187Z,98678.33
2018-12-12T22:39:32.638Z,98678.17
2018-12-12T22:42:00.096Z,98681.74
2018-12-12T22:44:27.542Z,98684.45
2018-12-12T22:46:54.993Z,98688.13
2018-12-12T22:49:22.451Z,98691.98
2018-12-12T22:51:49.920Z,98686.67
2018-12-12T22:54:17.461Z,98684.52
2018-12-12T22:56:44.922Z,98675.55
2018-12-12T22:59:12.387Z,98678.25
2018-12-12T23:01:39.840Z,98676.94
2018-12-12T23:04:07.555Z,98676.47
2018-12-12T23:06:35.023Z,98671.00
2018-12-12T23:09:02.487Z,98665.73
2018-12-12T23:11:29.950Z,98664.94
2018-12-12T23:13:57.408Z,98663.71
2018-12-12T23:16:24.862Z,98659.66
2018-12-12T23:18:52.329Z,98655.33
2018-12-12T23:21:19.787Z,98659.45
2018-12-12T23:23:47.243Z,98656.10
2018-12-12T23:26:14.690Z,98652.49
2018-12-12T23:28:42.129Z,98645.36
2018-12-12T23:31:09.599Z,98646.39
2018-12-12T23:33:37.045Z,98647.06
2018-12-12T23:36:04.523Z,98640.64
2018-12-12T23:38:31.982Z,98644.91
2018-12-12T23:40:59.442Z,98640.19
2018-12-12T23:43:26.885Z,98642.69
2018-12-12T23:45:54.355Z,98632.05
2018-12-12T23:48:21.797Z,98635.83
2018-12-12T23:50:49.261Z,98635.68
2018-12-12T23:53:16.710Z,98640.71
2018-12-12T23:55:44.215Z,98629.98
2018-12-12T23:58:11.669Z,98624.81
